Flight Number: AVA2176 Duration: 1:00
Departure: Vancouver Intl Airport (CYVR) at 04:00 Distance: 357.551 Nm
Arrival: Glacier Park Intl  aka KGPI (KFCA) at 05:00 Equipment: B737

Weather Information
Vancouver International Air-Port, B. C., Canada (CYVR) 49-11N 123-10W 2M Jul 13, 2020 - 09:00 PM EDT / 2020.07.14 0100 UTC
Wind: from the W (260 degrees) at 7 MPH (6 KT):0
Visibility: 20 mile(s):0
Sky conditions: mostly clear Temperature: 66 F (19 C) Dew Point: 53 F (12 C) Relative Humidity: 63% Pressure (altimeter): 30.1 in. Hg (1019 hPa)
ob: CYVR 140100Z 26006KT 20SM FEW026 FEW260 19/12 A3010 RMK CU1CI1 CU TR CI TR SLP193 DENSITY ALT 300FT cycle: 1
Sunrise: 12:28 Sunset: 04:08 (UTC)

404 Not Found

Not Found

The requested URL /data/observations/metar/decoded/KFCA.TXT was not found on this server.


Sunrise: 11:56 Sunset: 03:29 (UTC)

TAF: 404 Not Found

Not Found

The requested URL /data/forecasts/taf/stations/KFCA.TXT was not found on this server.



This route has never been flown.

Route map